createdAt,value
2018-11-03T00:00:00.231Z,10.01
2018-11-03T00:01:00.209Z,10.07
2018-11-03T00:02:00.213Z,10.08
2018-11-03T00:03:00.193Z,9.93
2018-11-03T00:04:00.175Z,10.07
2018-11-03T00:05:00.185Z,10.05
2018-11-03T00:06:00.154Z,10.14
2018-11-03T00:07:00.145Z,10.04
2018-11-03T00:08:00.131Z,10.01
2018-11-03T00:09:00.121Z,9.99
2018-11-03T00:10:00.118Z,10.04
2018-11-03T00:11:00.099Z,10.02
2018-11-03T00:12:00.087Z,9.99
2018-11-03T00:13:00.075Z,9.97
2018-11-03T00:14:00.064Z,9.93
2018-11-03T00:15:00.074Z,9.96
2018-11-03T00:16:00.042Z,9.99
2018-11-03T00:17:00.031Z,9.97
2018-11-03T00:18:00.024Z,9.93
2018-11-03T00:19:00.009Z,9.97
2018-11-03T00:20:00.007Z,10.01
2018-11-03T00:20:59.987Z,9.99
2018-11-03T00:21:59.976Z,9.97
2018-11-03T00:22:59.979Z,10.01
2018-11-03T00:23:59.952Z,10.01
2018-11-03T00:24:59.952Z,9.99
2018-11-03T00:25:59.932Z,9.99
2018-11-03T00:26:59.923Z,10.04
2018-11-03T00:27:59.907Z,10.04
2018-11-03T00:28:59.896Z,10.01
2018-11-03T00:29:59.912Z,10.01
2018-11-03T00:30:59.879Z,10.02
2018-11-03T00:31:59.868Z,9.97
2018-11-03T00:32:59.851Z,9.97
2018-11-03T00:33:59.842Z,10.01
2018-11-03T00:34:59.847Z,10.05
2018-11-03T00:35:59.820Z,9.97
2018-11-03T00:36:59.810Z,10.02
2018-11-03T00:37:59.833Z,10.02
2018-11-03T00:38:59.784Z,9.99
2018-11-03T00:39:59.783Z,9.97
2018-11-03T00:40:59.763Z,10.01
2018-11-03T00:41:59.752Z,10.02
2018-11-03T00:42:59.742Z,10.05
2018-11-03T00:43:59.731Z,10.04
2018-11-03T00:44:59.729Z,10.01
2018-11-03T00:45:59.707Z,10.01
2018-11-03T00:46:59.696Z,10.02
2018-11-03T00:47:59.688Z,9.97
2018-11-03T00:48:59.674Z,10.02
2018-11-03T00:49:59.705Z,9.99
2018-11-03T00:50:59.652Z,9.97
2018-11-03T00:51:59.669Z,10.05
2018-11-03T00:52:59.628Z,10.01
2018-11-03T00:53:59.623Z,9.99
2018-11-03T00:54:59.605Z,10.02
2018-11-03T00:55:59.606Z,10.02
2018-11-03T00:56:59.585Z,10.05
2018-11-03T00:57:59.579Z,9.96
2018-11-03T00:58:59.565Z,10.05
2018-11-03T00:59:59.559Z,9.99
2018-11-03T01:00:59.549Z,10.02
2018-11-03T01:01:59.527Z,10.02
2018-11-03T01:02:59.518Z,10.01
2018-11-03T01:03:59.504Z,10.01
2018-11-03T01:04:59.496Z,10.02
2018-11-03T01:05:59.495Z,10.01
2018-11-03T01:06:59.478Z,9.97
2018-11-03T01:07:59.460Z,9.97
2018-11-03T01:08:59.455Z,9.89
2018-11-03T01:09:59.438Z,9.84
2018-11-03T01:10:59.434Z,9.89
2018-11-03T01:11:59.415Z,9.90
2018-11-03T01:12:59.403Z,9.87
2018-11-03T01:13:59.395Z,9.94
2018-11-03T01:14:59.380Z,9.90
2018-11-03T01:15:59.390Z,9.97
2018-11-03T01:16:59.375Z,9.90
2018-11-03T01:17:59.348Z,9.99
2018-11-03T01:18:59.338Z,9.93
2018-11-03T01:19:59.328Z,9.99
2018-11-03T01:20:59.337Z,9.99
2018-11-03T01:21:59.312Z,9.97
2018-11-03T01:22:59.292Z,9.96
2018-11-03T01:23:59.289Z,9.93
2018-11-03T01:24:59.276Z,9.96
2018-11-03T01:25:59.269Z,9.96
2018-11-03T01:26:59.249Z,9.89
2018-11-03T01:27:59.236Z,9.94
2018-11-03T01:28:59.224Z,9.90
2018-11-03T01:29:59.214Z,9.87
2018-11-03T01:30:59.213Z,9.87
2018-11-03T01:31:59.191Z,9.83
2018-11-03T01:32:59.182Z,9.83
2018-11-03T01:33:59.176Z,9.87
2018-11-03T01:34:59.157Z,9.76
2018-11-03T01:35:59.167Z,9.75
2018-11-03T01:36:59.134Z,9.84
2018-11-03T01:37:59.126Z,9.81
2018-11-03T01:38:59.114Z,9.81
2018-11-03T01:39:59.101Z,9.76
2018-11-03T01:40:59.108Z,9.79
2018-11-03T01:41:59.080Z,9.81
2018-11-03T01:42:59.069Z,9.69
2018-11-03T01:43:59.058Z,9.72
2018-11-03T01:44:59.045Z,9.69
2018-11-03T01:45:59.044Z,9.75
2018-11-03T01:46:59.021Z,9.69
2018-11-03T01:47:59.019Z,9.74
2018-11-03T01:48:59.000Z,9.76
2018-11-03T01:49:58.989Z,9.78
2018-11-03T01:50:58.997Z,9.79
2018-11-03T01:51:58.969Z,9.79
2018-11-03T01:52:58.957Z,9.81
2018-11-03T01:53:58.948Z,9.76
2018-11-03T01:54:58.935Z,9.76
2018-11-03T01:55:58.923Z,9.86
2018-11-03T01:56:58.921Z,9.83
2018-11-03T01:57:58.925Z,9.76
2018-11-03T01:58:58.897Z,9.79
2018-11-03T01:59:58.878Z,9.79
2018-11-03T02:00:58.870Z,9.79
2018-11-03T02:01:58.872Z,9.74
2018-11-03T02:02:58.849Z,9.76
2018-11-03T02:03:58.834Z,9.84
2018-11-03T02:04:58.849Z,9.81
2018-11-03T02:05:58.815Z,9.87
2018-11-03T02:06:58.810Z,9.79
2018-11-03T02:07:58.791Z,9.83
2018-11-03T02:08:58.780Z,9.83
2018-11-03T02:09:58.767Z,9.81
2018-11-03T02:10:58.755Z,9.78
2018-11-03T02:11:58.763Z,9.75
2018-11-03T02:12:58.737Z,9.84
2018-11-03T02:13:58.729Z,9.74
2018-11-03T02:14:58.725Z,9.74
2018-11-03T02:15:58.707Z,9.72
2018-11-03T02:16:58.733Z,9.72
2018-11-03T02:17:58.678Z,9.69
2018-11-03T02:18:58.673Z,9.69
2018-11-03T02:19:58.658Z,9.68
2018-11-03T02:20:58.650Z,9.64
2018-11-03T02:21:58.645Z,9.69
2018-11-03T02:22:58.621Z,9.74
2018-11-03T02:23:58.611Z,9.61
2018-11-03T02:24:58.600Z,9.71
2018-11-03T02:25:58.603Z,9.66
2018-11-03T02:26:58.598Z,9.69
2018-11-03T02:27:58.568Z,9.69
2018-11-03T02:28:58.554Z,9.72
2018-11-03T02:29:58.569Z,9.69
2018-11-03T02:30:58.533Z,9.65
2018-11-03T02:31:58.535Z,9.71
2018-11-03T02:32:58.512Z,9.60
2018-11-03T02:33:58.499Z,9.60
2018-11-03T02:34:58.487Z,9.57
2018-11-03T02:35:58.478Z,9.51
2018-11-03T02:36:58.475Z,9.56
2018-11-03T02:37:58.457Z,9.50
2018-11-03T02:38:58.440Z,9.50
2018-11-03T02:39:58.431Z,9.51
2018-11-03T02:40:58.419Z,9.51
2018-11-03T02:41:58.454Z,9.51
2018-11-03T02:42:58.397Z,9.47
2018-11-03T02:43:58.400Z,9.48
2018-11-03T02:44:58.378Z,9.54
2018-11-03T02:45:58.363Z,9.54
2018-11-03T02:46:58.375Z,9.53
2018-11-03T02:47:58.348Z,9.54
2018-11-03T02:48:58.333Z,9.51
2018-11-03T02:49:58.318Z,9.54
2018-11-03T02:50:58.306Z,9.54
2018-11-03T02:51:58.297Z,9.50
2018-11-03T02:52:58.314Z,9.54
2018-11-03T02:53:58.274Z,9.58
2018-11-03T02:54:58.276Z,9.56
2018-11-03T02:55:58.254Z,9.50
2018-11-03T02:56:58.242Z,9.48
2018-11-03T02:57:58.243Z,9.54
2018-11-03T02:58:58.216Z,9.51
2018-11-03T02:59:58.205Z,9.51
2018-11-03T03:00:58.196Z,9.50
2018-11-03T03:01:58.183Z,9.42
2018-11-03T03:02:58.185Z,9.47
2018-11-03T03:03:58.213Z,9.38
2018-11-03T03:04:58.157Z,9.42
2018-11-03T03:05:58.140Z,9.43
2018-11-03T03:06:58.126Z,9.36
2018-11-03T03:07:58.131Z,9.40
2018-11-03T03:08:58.104Z,9.38
2018-11-03T03:09:58.101Z,9.42
2018-11-03T03:10:58.082Z,9.42
2018-11-03T03:11:58.102Z,9.42
2018-11-03T03:12:58.070Z,9.29
2018-11-03T03:13:58.049Z,9.32
2018-11-03T03:14:58.037Z,9.40
2018-11-03T03:15:58.035Z,9.46
2018-11-03T03:16:58.020Z,9.32
2018-11-03T03:17:58.016Z,9.33
2018-11-03T03:18:57.993Z,9.28
2018-11-03T03:19:57.987Z,9.35
2018-11-03T03:20:57.987Z,9.31
2018-11-03T03:21:57.964Z,9.39
2018-11-03T03:22:57.955Z,9.28
2018-11-03T03:23:57.938Z,9.29
2018-11-03T03:24:57.929Z,9.26
2018-11-03T03:25:57.922Z,9.20
2018-11-03T03:26:57.905Z,9.31
2018-11-03T03:27:57.913Z,9.31
2018-11-03T03:28:57.940Z,9.28
2018-11-03T03:29:57.882Z,9.21
2018-11-03T03:30:57.870Z,9.23
2018-11-03T03:31:57.849Z,9.18
2018-11-03T03:32:57.840Z,9.14
2018-11-03T03:33:57.841Z,9.14
2018-11-03T03:34:57.818Z,9.18
2018-11-03T03:35:57.838Z,9.05
2018-11-03T03:36:57.796Z,9.10
2018-11-03T03:37:57.787Z,9.08
2018-11-03T03:38:57.791Z,9.02
2018-11-03T03:39:57.762Z,9.02
2018-11-03T03:40:57.752Z,9.05
2018-11-03T03:41:57.744Z,9.13
2018-11-03T03:42:57.730Z,9.13
2018-11-03T03:43:57.730Z,9.05
2018-11-03T03:44:57.711Z,9.01
2018-11-03T03:45:57.701Z,8.96
2018-11-03T03:46:57.686Z,9.02
2018-11-03T03:47:57.677Z,8.99
2018-11-03T03:48:57.673Z,8.94
2018-11-03T03:49:57.661Z,9.01
2018-11-03T03:50:57.645Z,8.99
2018-11-03T03:51:57.635Z,9.04
2018-11-03T03:52:57.621Z,9.05
2018-11-03T03:53:57.620Z,9.02
2018-11-03T03:54:57.596Z,8.95
2018-11-03T03:55:57.588Z,8.94
2018-11-03T03:56:57.578Z,8.95
2018-11-03T03:57:57.564Z,9.04
2018-11-03T03:58:57.570Z,8.99
2018-11-03T03:59:57.546Z,9.04
2018-11-03T04:00:57.531Z,8.96
2018-11-03T04:01:57.520Z,8.84
2018-11-03T04:02:57.509Z,8.91
2018-11-03T04:03:57.510Z,8.94
2018-11-03T04:04:57.488Z,8.92
2018-11-03T04:05:57.473Z,8.86
2018-11-03T04:06:57.468Z,8.89
2018-11-03T04:07:57.456Z,8.83
2018-11-03T04:08:57.464Z,8.86
2018-11-03T04:09:57.440Z,8.89
2018-11-03T04:10:57.423Z,8.84
2018-11-03T04:11:57.411Z,8.83
2018-11-03T04:12:57.414Z,8.76
2018-11-03T04:13:57.401Z,8.76
2018-11-03T04:14:57.381Z,8.81
2018-11-03T04:15:57.367Z,8.74
2018-11-03T04:16:57.355Z,8.76
2018-11-03T04:17:57.348Z,8.79
2018-11-03T04:18:57.344Z,8.76
2018-11-03T04:19:57.328Z,8.77
2018-11-03T04:20:57.313Z,8.83
2018-11-03T04:21:57.302Z,8.86
2018-11-03T04:22:57.289Z,8.79
2018-11-03T04:23:57.297Z,8.81
2018-11-03T04:24:57.272Z,8.77
2018-11-03T04:25:57.255Z,8.79
2018-11-03T04:26:57.246Z,8.76
2018-11-03T04:27:57.238Z,8.73
2018-11-03T04:28:57.222Z,8.77
2018-11-03T04:29:57.224Z,8.79
2018-11-03T04:30:57.202Z,8.89
2018-11-03T04:31:57.194Z,8.74
2018-11-03T04:32:57.207Z,8.76
2018-11-03T04:33:57.166Z,8.83
2018-11-03T04:34:57.172Z,8.79
2018-11-03T04:35:57.153Z,8.76
2018-11-03T04:36:57.134Z,8.79
2018-11-03T04:37:57.132Z,8.73
2018-11-03T04:38:57.114Z,8.77
2018-11-03T04:39:57.115Z,8.79
2018-11-03T04:40:57.089Z,8.77
2018-11-03T04:41:57.082Z,8.76
2018-11-03T04:42:57.069Z,8.77
2018-11-03T04:43:57.072Z,8.76
2018-11-03T04:44:57.059Z,8.70
2018-11-03T04:45:57.037Z,8.73
2018-11-03T04:46:57.024Z,8.74
2018-11-03T04:47:57.014Z,8.70
2018-11-03T04:48:57.011Z,8.71
2018-11-03T04:49:57.040Z,8.63
2018-11-03T04:50:56.980Z,8.66
2018-11-03T04:51:56.972Z,8.63
2018-11-03T04:52:56.968Z,8.55
2018-11-03T04:53:56.947Z,8.56
2018-11-03T04:54:56.982Z,8.53
2018-11-03T04:55:56.928Z,8.55
2018-11-03T04:56:56.915Z,8.59
2018-11-03T04:57:56.905Z,8.53
2018-11-03T04:58:56.893Z,8.58
2018-11-03T04:59:56.887Z,8.56
2018-11-03T05:00:56.890Z,8.53
2018-11-03T05:01:56.859Z,8.52
2018-11-03T05:02:56.847Z,8.40
2018-11-03T05:03:56.842Z,8.45
2018-11-03T05:04:56.825Z,8.41
2018-11-03T05:05:56.824Z,8.41
2018-11-03T05:06:56.828Z,8.48
2018-11-03T05:07:56.791Z,8.41
2018-11-03T05:08:56.783Z,8.41
2018-11-03T05:09:56.824Z,8.45
2018-11-03T05:10:56.774Z,8.41
2018-11-03T05:11:56.748Z,8.38
2018-11-03T05:12:56.739Z,8.38
2018-11-03T05:13:56.730Z,8.53
2018-11-03T05:14:56.722Z,8.52
2018-11-03T05:15:56.728Z,8.55
2018-11-03T05:16:56.695Z,8.47
2018-11-03T05:17:56.733Z,8.44
2018-11-03T05:18:56.671Z,8.48
2018-11-03T05:19:56.660Z,8.44
2018-11-03T05:20:56.660Z,8.38
2018-11-03T05:21:56.640Z,8.37
2018-11-03T05:22:56.629Z,8.43
2018-11-03T05:23:56.619Z,8.45
2018-11-03T05:24:56.604Z,8.47
2018-11-03T05:25:56.606Z,8.52
2018-11-03T05:26:56.594Z,8.48
2018-11-03T05:27:56.573Z,8.53
2018-11-03T05:28:56.560Z,8.50
2018-11-03T05:29:56.553Z,8.45
2018-11-03T05:30:56.582Z,8.44
2018-11-03T05:31:56.529Z,8.44
2018-11-03T05:32:56.524Z,8.47
2018-11-03T05:33:56.509Z,8.53
2018-11-03T05:34:56.497Z,8.48
2018-11-03T05:35:56.502Z,8.41
2018-11-03T05:36:56.473Z,8.47
2018-11-03T05:37:56.470Z,8.41
2018-11-03T05:38:56.505Z,8.40
2018-11-03T05:39:56.444Z,8.29
2018-11-03T05:40:56.435Z,8.36
2018-11-03T05:41:56.438Z,8.38
2018-11-03T05:42:56.408Z,8.43
2018-11-03T05:43:56.471Z,8.25
2018-11-03T05:44:56.385Z,8.41
2018-11-03T05:45:56.375Z,8.43
2018-11-03T05:46:56.377Z,8.34
2018-11-03T05:47:56.359Z,8.41
2018-11-03T05:48:56.342Z,8.29
2018-11-03T05:49:56.334Z,8.30
2018-11-03T05:50:56.319Z,8.38
2018-11-03T05:51:56.321Z,8.29
2018-11-03T05:52:56.296Z,8.40
2018-11-03T05:53:56.289Z,8.28
2018-11-03T05:54:56.273Z,8.28
2018-11-03T05:55:56.278Z,8.29
2018-11-03T05:56:56.265Z,8.25
2018-11-03T05:57:56.243Z,8.29
2018-11-03T05:58:56.362Z,8.25
2018-11-03T05:59:56.229Z,8.26
2018-11-03T06:00:56.209Z,8.20
2018-11-03T06:01:56.212Z,8.29
2018-11-03T06:02:56.192Z,8.23
2018-11-03T06:03:56.189Z,8.19
2018-11-03T06:04:56.167Z,8.20
2018-11-03T06:05:56.161Z,8.20
2018-11-03T06:06:56.158Z,8.19
2018-11-03T06:07:56.133Z,8.22
2018-11-03T06:08:56.224Z,8.15
2018-11-03T06:09:56.111Z,8.20
2018-11-03T06:10:56.100Z,8.11
2018-11-03T06:11:56.101Z,8.12
2018-11-03T06:12:56.081Z,8.08
2018-11-03T06:13:56.076Z,8.12
2018-11-03T06:14:56.055Z,8.10
2018-11-03T06:15:56.045Z,8.12
2018-11-03T06:16:56.043Z,8.05
2018-11-03T06:17:56.024Z,8.05
2018-11-03T06:18:56.014Z,8.12
2018-11-03T06:19:56.000Z,8.12
2018-11-03T06:20:55.990Z,8.12
2018-11-03T06:21:55.991Z,8.05
2018-11-03T06:22:55.995Z,8.08
2018-11-03T06:23:55.956Z,8.11
2018-11-03T06:24:55.945Z,8.08
2018-11-03T06:25:55.936Z,8.07
2018-11-03T06:26:55.934Z,8.05
2018-11-03T06:27:55.922Z,8.04
2018-11-03T06:28:55.900Z,8.05
2018-11-03T06:29:55.894Z,8.04
2018-11-03T06:30:55.879Z,8.02
2018-11-03T06:31:55.893Z,8.05
2018-11-03T06:32:55.861Z,8.11
2018-11-03T06:33:55.850Z,8.00
2018-11-03T06:34:55.834Z,8.00
2018-11-03T06:35:55.822Z,7.95
2018-11-03T06:36:55.813Z,7.97
2018-11-03T06:37:55.815Z,7.93
2018-11-03T06:38:55.846Z,7.97
2018-11-03T06:39:55.784Z,7.92
2018-11-03T06:40:55.769Z,7.89
2018-11-03T06:41:55.758Z,7.95
2018-11-03T06:42:55.757Z,7.89
2018-11-03T06:43:55.735Z,7.87
2018-11-03T06:44:55.723Z,7.79
2018-11-03T06:45:55.713Z,7.79
2018-11-03T06:46:55.709Z,7.77
2018-11-03T06:47:55.704Z,7.80
2018-11-03T06:48:55.680Z,7.80
2018-11-03T06:49:55.670Z,7.80
2018-11-03T06:50:55.664Z,7.75
2018-11-03T06:51:55.650Z,7.69
2018-11-03T06:52:55.645Z,7.75
2018-11-03T06:53:55.627Z,7.79
2018-11-03T06:54:55.609Z,7.75
2018-11-03T06:55:55.607Z,7.79
2018-11-03T06:56:55.597Z,7.75
2018-11-03T06:57:55.593Z,7.79
2018-11-03T06:58:55.568Z,7.79
2018-11-03T06:59:55.560Z,7.74
2018-11-03T07:00:55.559Z,7.77
2018-11-03T07:01:55.533Z,7.71
2018-11-03T07:02:55.540Z,7.75
2018-11-03T07:03:55.514Z,7.77
2018-11-03T07:04:55.562Z,7.80
2018-11-03T07:05:55.491Z,7.79
2018-11-03T07:06:55.481Z,7.72
2018-11-03T07:07:55.482Z,7.55
2018-11-03T07:08:55.463Z,7.74
2018-11-03T07:09:55.450Z,7.69
2018-11-03T07:10:55.438Z,7.61
2018-11-03T07:11:55.519Z,7.67
2018-11-03T07:12:55.574Z,7.63
2018-11-03T07:13:55.403Z,7.64
2018-11-03T07:14:55.394Z,7.58
2018-11-03T07:15:55.383Z,7.67
2018-11-03T07:16:55.369Z,7.63
2018-11-03T07:17:55.425Z,7.61
2018-11-03T07:18:55.347Z,7.69
2018-11-03T07:19:55.340Z,7.67
2018-11-03T07:20:55.326Z,7.64
2018-11-03T07:21:55.314Z,7.68
2018-11-03T07:22:55.325Z,7.67
2018-11-03T07:23:55.292Z,7.57
2018-11-03T07:24:55.280Z,7.63
2018-11-03T07:25:55.270Z,7.71
2018-11-03T07:26:55.261Z,7.61
2018-11-03T07:27:55.260Z,7.75
2018-11-03T07:28:55.234Z,7.74
2018-11-03T07:29:55.294Z,7.74
2018-11-03T07:30:55.214Z,7.75
2018-11-03T07:31:55.211Z,7.74
2018-11-03T07:32:55.219Z,7.77
2018-11-03T07:33:55.238Z,7.71
2018-11-03T07:34:55.170Z,7.61
2018-11-03T07:35:55.160Z,7.61
2018-11-03T07:36:55.153Z,7.75
2018-11-03T07:37:55.139Z,7.79
2018-11-03T07:38:55.137Z,7.77
2018-11-03T07:39:55.116Z,7.74
2018-11-03T07:40:55.207Z,7.79
2018-11-03T07:41:55.107Z,7.80
2018-11-03T07:42:55.082Z,7.83
2018-11-03T07:43:55.082Z,7.77
2018-11-03T07:44:55.059Z,7.82
2018-11-03T07:45:55.052Z,7.79
2018-11-03T07:46:55.042Z,7.79
2018-11-03T07:47:55.034Z,7.95
2018-11-03T07:48:55.199Z,7.98
2018-11-03T07:49:55.014Z,7.87
2018-11-03T07:50:54.992Z,7.89
2018-11-03T07:51:54.983Z,7.92
2018-11-03T07:52:54.974Z,7.89
2018-11-03T07:53:54.972Z,7.93
2018-11-03T07:54:55.122Z,7.97
2018-11-03T07:55:54.937Z,8.02
2018-11-03T07:56:54.927Z,8.02
2018-11-03T07:57:54.916Z,8.08
2018-11-03T07:58:54.917Z,8.15
2018-11-03T07:59:54.901Z,8.18
2018-11-03T08:00:54.883Z,8.12
2018-11-03T08:01:54.876Z,8.18
2018-11-03T08:02:54.859Z,8.19
2018-11-03T08:03:54.863Z,8.25
2018-11-03T08:04:54.838Z,8.29
2018-11-03T08:05:54.828Z,8.34
2018-11-03T08:06:54.821Z,8.37
2018-11-03T08:07:54.820Z,8.52
2018-11-03T08:08:54.823Z,8.55
2018-11-03T08:09:54.783Z,8.50
2018-11-03T08:10:54.775Z,8.63
2018-11-03T08:11:54.762Z,8.66
2018-11-03T08:12:54.750Z,8.63
2018-11-03T08:13:54.763Z,8.65
2018-11-03T08:14:54.726Z,8.77
2018-11-03T08:15:54.921Z,8.77
2018-11-03T08:16:54.706Z,8.83
2018-11-03T08:17:54.702Z,8.91
2018-11-03T08:18:54.698Z,8.84
2018-11-03T08:19:54.674Z,8.99
2018-11-03T08:20:54.663Z,8.98
2018-11-03T08:21:54.667Z,9.04
2018-11-03T08:22:54.641Z,9.01
2018-11-03T08:23:54.710Z,9.02
2018-11-03T08:24:54.617Z,9.17
2018-11-03T08:25:54.608Z,9.14
2018-11-03T08:26:54.599Z,9.14
2018-11-03T08:27:54.586Z,9.28
2018-11-03T08:28:54.598Z,9.31
2018-11-03T08:29:54.563Z,9.29
2018-11-03T08:30:54.599Z,9.33
2018-11-03T08:31:54.540Z,9.28
2018-11-03T08:32:54.530Z,9.42
2018-11-03T08:33:54.519Z,9.40
2018-11-03T08:34:54.520Z,9.51
2018-11-03T08:35:54.495Z,9.53
2018-11-03T08:36:54.486Z,9.65
2018-11-03T08:37:54.475Z,9.66
2018-11-03T08:38:54.460Z,9.71
2018-11-03T08:39:54.464Z,9.83
2018-11-03T08:40:54.440Z,9.91
2018-11-03T08:41:54.429Z,9.99
2018-11-03T08:42:54.443Z,9.99
2018-11-03T08:43:54.408Z,10.11
2018-11-03T08:44:54.404Z,10.20
2018-11-03T08:45:54.387Z,10.17
2018-11-03T08:46:54.373Z,10.09
2018-11-03T08:47:54.370Z,10.07
2018-11-03T08:48:54.430Z,10.11
2018-11-03T08:49:54.351Z,10.09
2018-11-03T08:50:54.331Z,10.17
2018-11-03T08:51:54.318Z,10.29
2018-11-03T08:52:54.306Z,10.23
2018-11-03T08:53:54.295Z,10.32
2018-11-03T08:54:54.294Z,10.38
2018-11-03T08:55:54.290Z,10.60
2018-11-03T08:56:54.305Z,10.85
2018-11-03T08:57:54.249Z,11.10
2018-11-03T08:58:54.238Z,11.42
2018-11-03T08:59:54.388Z,11.36
2018-11-03T09:00:54.217Z,11.18
2018-11-03T09:01:54.210Z,11.22
2018-11-03T09:02:54.197Z,11.47
2018-11-03T09:03:54.191Z,11.88
2018-11-03T09:04:54.187Z,12.41
2018-11-03T09:05:54.165Z,12.47
2018-11-03T09:06:54.221Z,12.60
2018-11-03T09:07:54.139Z,12.47
2018-11-03T09:08:54.126Z,12.42
2018-11-03T09:09:54.146Z,12.23
2018-11-03T09:10:54.106Z,11.98
2018-11-03T09:11:54.098Z,11.76
2018-11-03T09:12:54.083Z,11.65
2018-11-03T09:13:54.070Z,11.61
2018-11-03T09:14:54.137Z,11.62
2018-11-03T09:15:54.052Z,11.70
2018-11-03T09:16:54.040Z,11.78
2018-11-03T09:17:54.038Z,11.85
2018-11-03T09:18:54.014Z,12.02
2018-11-03T09:19:54.002Z,12.12
2018-11-03T09:20:54.003Z,12.39
2018-11-03T09:21:54.048Z,12.60
2018-11-03T09:22:53.973Z,12.68
2018-11-03T09:23:53.960Z,12.56
2018-11-03T09:24:53.952Z,12.53
2018-11-03T09:25:54.028Z,12.54
2018-11-03T09:26:53.925Z,12.39
2018-11-03T09:27:53.915Z,12.37
2018-11-03T09:28:53.916Z,12.34
2018-11-03T09:29:53.893Z,12.34
2018-11-03T09:30:53.904Z,12.31
2018-11-03T09:31:53.980Z,12.31
2018-11-03T09:32:53.870Z,12.21
2018-11-03T09:33:53.849Z,12.19
2018-11-03T09:34:53.837Z,12.10
2018-11-03T09:35:53.836Z,11.98
2018-11-03T09:36:53.816Z,11.83
2018-11-03T09:37:53.804Z,11.80
2018-11-03T09:38:53.883Z,11.99
2018-11-03T09:39:53.781Z,12.29
2018-11-03T09:40:53.781Z,12.67
2018-11-03T09:41:53.766Z,12.95
2018-11-03T09:42:53.810Z,13.07
2018-11-03T09:43:53.740Z,12.71
2018-11-03T09:44:53.788Z,12.45
2018-11-03T09:45:53.735Z,12.38
2018-11-03T09:46:53.705Z,12.29
2018-11-03T09:47:53.695Z,12.31
2018-11-03T09:48:53.749Z,12.39
2018-11-03T09:49:53.672Z,12.37
2018-11-03T09:50:53.870Z,12.32
2018-11-03T09:51:53.650Z,12.37
2018-11-03T09:52:53.641Z,12.31
2018-11-03T09:53:53.629Z,12.31
2018-11-03T09:54:53.621Z,12.34
2018-11-03T09:55:53.617Z,12.21
2018-11-03T09:56:53.594Z,12.16
2018-11-03T09:57:53.585Z,12.05
2018-11-03T09:58:53.612Z,12.20
2018-11-03T09:59:53.576Z,12.41
2018-11-03T10:00:53.590Z,12.56
2018-11-03T10:01:53.548Z,12.74
2018-11-03T10:02:53.534Z,13.10
2018-11-03T10:03:53.521Z,13.63
2018-11-03T10:04:53.513Z,14.18
2018-11-03T10:05:53.509Z,14.57
2018-11-03T10:06:53.487Z,14.68
2018-11-03T10:07:53.477Z,14.73
2018-11-03T10:08:53.485Z,14.75
2018-11-03T10:09:53.453Z,14.72
2018-11-03T10:10:53.441Z,14.64
2018-11-03T10:11:53.446Z,14.52
2018-11-03T10:12:53.431Z,14.21
2018-11-03T10:13:53.423Z,13.71
2018-11-03T10:14:53.395Z,13.45
2018-11-03T10:15:53.482Z,13.28
2018-11-03T10:16:53.391Z,13.08
2018-11-03T10:17:53.373Z,12.93
2018-11-03T10:18:53.352Z,12.82
2018-11-03T10:19:53.345Z,12.67
2018-11-03T10:20:53.335Z,12.59
2018-11-03T10:21:53.341Z,12.53
2018-11-03T10:22:53.391Z,12.41
2018-11-03T10:23:53.315Z,12.47
2018-11-03T10:24:53.286Z,12.60
2018-11-03T10:25:53.274Z,12.47
2018-11-03T10:26:53.275Z,12.53
2018-11-03T10:27:53.275Z,12.37
2018-11-03T10:28:53.243Z,12.32
2018-11-03T10:29:53.232Z,12.17
2018-11-03T10:30:53.227Z,12.14
2018-11-03T10:31:53.220Z,12.21
2018-11-03T10:32:53.200Z,12.14
2018-11-03T10:33:53.388Z,12.14
2018-11-03T10:34:53.187Z,12.17
2018-11-03T10:35:53.164Z,12.16
2018-11-03T10:36:53.158Z,12.07
2018-11-03T10:37:53.146Z,12.16
2018-11-03T10:38:53.128Z,12.17
2018-11-03T10:39:53.123Z,12.10
2018-11-03T10:40:53.129Z,11.98
2018-11-03T10:41:53.101Z,12.04
2018-11-03T10:42:53.079Z,11.95
2018-11-03T10:43:53.068Z,11.96
2018-11-03T10:44:53.060Z,12.01
2018-11-03T10:45:53.075Z,11.98
2018-11-03T10:46:53.059Z,11.98
2018-11-03T10:47:53.032Z,11.99
2018-11-03T10:48:53.037Z,12.05
2018-11-03T10:49:53.005Z,12.02
2018-11-03T10:50:52.988Z,12.04
2018-11-03T10:51:52.992Z,12.07
2018-11-03T10:52:52.967Z,11.99
2018-11-03T10:53:52.966Z,12.07
2018-11-03T10:54:52.948Z,11.99
2018-11-03T10:55:52.935Z,12.04
2018-11-03T10:56:52.946Z,11.98
2018-11-03T10:57:52.914Z,12.05
2018-11-03T10:58:52.902Z,12.05
2018-11-03T10:59:52.892Z,12.04
2018-11-03T11:00:52.882Z,12.05
2018-11-03T11:01:52.881Z,12.01
2018-11-03T11:02:52.864Z,12.04
2018-11-03T11:03:52.848Z,12.10
2018-11-03T11:04:52.839Z,12.07
2018-11-03T11:05:52.829Z,12.12
2018-11-03T11:06:52.861Z,12.19
2018-11-03T11:07:52.804Z,12.13
2018-11-03T11:08:52.806Z,12.27
2018-11-03T11:09:52.783Z,12.21
2018-11-03T11:10:52.771Z,12.23
2018-11-03T11:11:52.776Z,12.21
2018-11-03T11:12:52.760Z,12.24
2018-11-03T11:13:52.804Z,12.21
2018-11-03T11:14:52.723Z,12.24
2018-11-03T11:15:52.857Z,12.23
2018-11-03T11:16:52.837Z,12.29
2018-11-03T11:17:52.704Z,12.27
2018-11-03T11:18:52.700Z,12.38
2018-11-03T11:19:52.678Z,12.42
2018-11-03T11:20:52.659Z,12.59
2018-11-03T11:21:52.647Z,12.57
2018-11-03T11:22:52.649Z,12.56
2018-11-03T11:23:52.635Z,12.57
2018-11-03T11:24:52.641Z,12.64
2018-11-03T11:25:52.617Z,12.64
2018-11-03T11:26:52.590Z,12.64
2018-11-03T11:27:52.597Z,12.57
2018-11-03T11:28:52.569Z,12.56
2018-11-03T11:29:52.562Z,12.64
2018-11-03T11:30:52.544Z,12.62
2018-11-03T11:31:52.537Z,12.56
2018-11-03T11:32:52.617Z,12.62
2018-11-03T11:33:52.513Z,12.49
2018-11-03T11:34:52.545Z,12.52
2018-11-03T11:35:52.493Z,12.47
2018-11-03T11:36:52.476Z,12.56
2018-11-03T11:37:52.475Z,12.53
2018-11-03T11:38:52.457Z,12.52
2018-11-03T11:39:52.446Z,12.64
2018-11-03T11:40:52.435Z,12.64
2018-11-03T11:41:52.424Z,12.60
2018-11-03T11:42:52.440Z,12.59
2018-11-03T11:43:52.401Z,12.56
2018-11-03T11:44:52.391Z,12.59
2018-11-03T11:45:52.377Z,12.65
2018-11-03T11:46:52.369Z,12.59
2018-11-03T11:47:52.373Z,12.60
2018-11-03T11:48:52.347Z,12.64
2018-11-03T11:49:52.334Z,12.59
2018-11-03T11:50:52.330Z,12.65
2018-11-03T11:51:52.316Z,12.70
2018-11-03T11:52:52.325Z,12.71
2018-11-03T11:53:52.293Z,12.83
2018-11-03T11:54:52.338Z,12.85
2018-11-03T11:55:52.272Z,12.86
2018-11-03T11:56:52.258Z,12.92
2018-11-03T11:57:52.250Z,12.93
2018-11-03T11:58:52.249Z,13.04
2018-11-03T11:59:52.228Z,13.04
2018-11-03T12:00:52.214Z,13.12
2018-11-03T12:01:52.202Z,13.12
2018-11-03T12:02:52.209Z,13.03
2018-11-03T12:03:52.193Z,13.08
2018-11-03T12:04:52.187Z,13.20
2018-11-03T12:05:52.160Z,13.20
2018-11-03T12:06:52.149Z,13.19
2018-11-03T12:07:52.138Z,13.17
2018-11-03T12:08:52.146Z,13.17
2018-11-03T12:09:52.164Z,13.17
2018-11-03T12:10:52.107Z,13.20
2018-11-03T12:11:52.152Z,13.07
2018-11-03T12:12:52.081Z,13.23
2018-11-03T12:13:52.090Z,13.20
2018-11-03T12:14:52.057Z,13.26
2018-11-03T12:15:52.065Z,13.22
2018-11-03T12:16:52.088Z,13.23
2018-11-03T12:17:52.025Z,13.23
2018-11-03T12:18:52.026Z,13.28
2018-11-03T12:19:52.001Z,13.39
2018-11-03T12:20:52.034Z,13.38
2018-11-03T12:21:51.980Z,13.33
2018-11-03T12:22:51.967Z,13.42
2018-11-03T12:23:51.981Z,13.44
2018-11-03T12:24:51.945Z,13.38
2018-11-03T12:25:52.042Z,13.41
2018-11-03T12:26:51.930Z,13.36
2018-11-03T12:27:51.909Z,13.46
2018-11-03T12:28:51.914Z,13.38
2018-11-03T12:29:51.885Z,13.45
2018-11-03T12:30:51.884Z,13.52
2018-11-03T12:31:51.866Z,13.48
2018-11-03T12:32:51.852Z,13.45
2018-11-03T12:33:51.855Z,13.46
2018-11-03T12:34:51.834Z,13.49
2018-11-03T12:35:51.818Z,13.57
2018-11-03T12:36:51.810Z,13.54
2018-11-03T12:37:51.802Z,13.54
2018-11-03T12:38:51.806Z,13.48
2018-11-03T12:39:51.782Z,13.51
2018-11-03T12:40:51.792Z,13.48
2018-11-03T12:41:51.750Z,13.55
2018-11-03T12:42:51.744Z,13.49
2018-11-03T12:43:51.741Z,13.57
2018-11-03T12:44:51.722Z,13.57
2018-11-03T12:45:51.703Z,13.57
2018-11-03T12:46:51.696Z,13.66
2018-11-03T12:47:51.682Z,13.67
2018-11-03T12:48:51.699Z,13.64
2018-11-03T12:49:51.662Z,13.67
2018-11-03T12:50:51.649Z,13.62
2018-11-03T12:51:51.637Z,13.64
2018-11-03T12:52:51.662Z,13.66
2018-11-03T12:53:51.626Z,13.66
2018-11-03T12:54:51.614Z,13.66
2018-11-03T12:55:51.599Z,13.67
2018-11-03T12:56:51.582Z,13.66
2018-11-03T12:57:51.571Z,13.64
2018-11-03T12:58:51.570Z,13.73
2018-11-03T12:59:51.549Z,13.70
2018-11-03T13:00:51.536Z,13.69
2018-11-03T13:01:51.539Z,13.73
2018-11-03T13:02:51.516Z,13.81
2018-11-03T13:03:51.512Z,13.73
2018-11-03T13:04:51.498Z,13.71
2018-11-03T13:05:51.607Z,13.70
2018-11-03T13:06:51.471Z,13.70
2018-11-03T13:07:51.458Z,13.73